Time;durP1;ratioP1;P1;durP2;ratioP2;P2;SDS_P1;SDS_P2;PMS_P1;PMS_P2;Temp;Humidity;BMP_temperature;BMP_pressure;BME280_temperature;BME280_humidity;BME280_pressure;Samples;Min_cycle;Max_cycle;Signal;HPM_P1;HPM_P2
2023/03/04 00:02:21;;;;;;;19.63;12.45;;;5.40;67.80;;;;;;4974299;28;20030;-61
2023/03/04 00:04:47;;;;;;;17.27;10.80;;;5.30;67.90;;;;;;4973844;28;20027;-61
2023/03/04 00:07:15;;;;;;;18.27;11.57;;;5.20;68.20;;;;;;4971144;28;20050;-61
2023/03/04 00:09:42;;;;;;;16.58;11.77;;;5.20;68.50;;;;;;4968919;28;20035;-60
2023/03/04 00:12:08;;;;;;;16.35;10.77;;;5.10;68.50;;;;;;4972798;28;20043;-60
2023/03/04 00:14:33;;;;;;;15.75;10.60;;;5.10;68.90;;;;;;4973999;28;20023;-61
2023/03/04 00:16:59;;;;;;;17.73;10.98;;;5.10;68.80;;;;;;4973403;28;20046;-61
2023/03/04 00:19:24;;;;;;;18.23;12.35;;;5.10;69.00;;;;;;4973850;28;20031;-61
2023/03/04 00:21:50;;;;;;;18.77;13.23;;;5.00;69.20;;;;;;4973196;28;20548;-61
2023/03/04 00:24:16;;;;;;;18.15;13.18;;;5.00;69.20;;;;;;4973665;28;20063;-61
2023/03/04 00:26:41;;;;;;;18.38;12.85;;;5.00;69.40;;;;;;4972569;28;20118;-61
2023/03/04 00:29:07;;;;;;;18.23;12.77;;;5.00;69.40;;;;;;4972840;28;20042;-61
2023/03/04 00:31:33;;;;;;;14.63;10.32;;;5.00;69.50;;;;;;4972817;28;20181;-61
2023/03/04 00:33:58;;;;;;;12.90;10.32;;;5.00;69.50;;;;;;4973427;28;20077;-61
2023/03/04 00:36:24;;;;;;;19.13;12.75;;;4.90;69.40;;;;;;4972792;28;20118;-61
2023/03/04 00:38:50;;;;;;;18.58;12.85;;;4.90;69.60;;;;;;4973486;28;20030;-61
2023/03/04 00:41:16;;;;;;;16.92;11.50;;;4.90;69.70;;;;;;4978560;28;20050;-61
2023/03/04 00:43:42;;;;;;;19.58;13.10;;;4.90;69.80;;;;;;4964859;28;20517;-61
2023/03/04 00:46:07;;;;;;;18.55;12.68;;;4.90;69.90;;;;;;4969653;28;20035;-49
2023/03/04 00:48:33;;;;;;;19.92;12.63;;;5.00;69.70;;;;;;4973610;28;20051;-50
2023/03/04 00:50:58;;;;;;;16.83;11.80;;;5.00;69.60;;;;;;4976415;28;20161;-62
2023/03/04 00:53:24;;;;;;;19.88;13.45;;;5.10;69.50;;;;;;4972439;28;20473;-62
2023/03/04 00:55:50;;;;;;;21.17;13.38;;;5.10;69.50;;;;;;4972948;28;20473;-62
2023/03/04 00:58:16;;;;;;;19.35;14.02;;;5.10;69.40;;;;;;4980188;28;20121;-62
2023/03/04 01:00:42;;;;;;;20.23;13.48;;;5.10;69.50;;;;;;4972752;28;20066;-52
2023/03/04 01:03:07;;;;;;;17.15;12.50;;;5.20;69.30;;;;;;4972735;28;20059;-51
2023/03/04 01:05:34;;;;;;;18.30;12.85;;;5.20;69.20;;;;;;4962989;28;20035;-54
2023/03/04 01:08:01;;;;;;;20.25;13.20;;;5.20;69.20;;;;;;4970261;28;20058;-49
2023/03/04 01:10:26;;;;;;;17.73;12.80;;;5.20;69.20;;;;;;4972780;28;20381;-55
2023/03/04 01:12:52;;;;;;;19.33;13.23;;;5.20;69.10;;;;;;4973267;28;20030;-53
2023/03/04 01:15:18;;;;;;;19.85;13.57;;;5.20;69.20;;;;;;4972088;28;20015;-53
2023/03/04 01:17:44;;;;;;;20.00;13.43;;;5.20;69.20;;;;;;4973421;28;20110;-63
2023/03/04 01:20:11;;;;;;;20.75;13.52;;;5.20;69.20;;;;;;4973057;28;20035;-62
2023/03/04 01:22:37;;;;;;;20.42;13.75;;;5.20;69.20;;;;;;4971614;28;20082;-54
2023/03/04 01:25:04;;;;;;;21.77;13.80;;;5.20;69.20;;;;;;4972529;28;20031;-56
2023/03/04 01:27:29;;;;;;;20.38;13.27;;;5.20;69.30;;;;;;4973435;28;20442;-61
2023/03/04 01:29:55;;;;;;;20.13;13.02;;;5.20;69.30;;;;;;4977651;28;20035;-60
2023/03/04 01:32:21;;;;;;;20.40;13.45;;;5.20;69.30;;;;;;4972389;28;20038;-62
2023/03/04 01:34:46;;;;;;;21.38;14.35;;;5.20;69.30;;;;;;4972689;28;20078;-61
2023/03/04 01:37:15;;;;;;;19.88;13.45;;;5.10;69.40;;;;;;4966633;28;20031;-62
2023/03/04 01:39:40;;;;;;;20.27;13.80;;;5.10;69.40;;;;;;4975453;28;20030;-62
2023/03/04 01:42:17;;;;;;;21.23;14.10;;;5.10;69.50;;;;;;4980984;28;20369;-62
2023/03/04 01:44:43;;;;;;;20.90;14.05;;;5.10;69.50;;;;;;4974880;28;20031;-62
2023/03/04 01:47:09;;;;;;;19.60;13.98;;;5.10;69.70;;;;;;4978015;28;20385;-62
2023/03/04 01:49:35;;;;;;;20.23;13.85;;;5.10;69.60;;;;;;4976683;28;20377;-62
2023/03/04 01:52:01;;;;;;;21.67;13.45;;;5.10;69.60;;;;;;4972306;28;20035;-62
2023/03/04 01:54:26;;;;;;;17.75;12.23;;;5.10;69.60;;;;;;4973214;28;20105;-61
2023/03/04 01:56:53;;;;;;;19.38;13.73;;;5.10;69.60;;;;;;4976007;28;20026;-62
2023/03/04 01:59:18;;;;;;;20.15;14.23;;;5.00;69.70;;;;;;4979416;28;20050;-62
2023/03/04 02:01:50;;;;;;;20.23;14.57;;;5.00;69.70;;;;;;4976058;28;20047;-64
2023/03/04 02:04:17;;;;;;;22.75;14.52;;;5.00;69.70;;;;;;4976123;28;20035;-64
2023/03/04 02:06:45;;;;;;;20.63;13.50;;;5.00;69.70;;;;;;4974019;28;20035;-61
2023/03/04 02:09:10;;;;;;;20.17;14.50;;;5.00;69.80;;;;;;4976156;28;20528;-62
2023/03/04 02:11:37;;;;;;;21.23;14.52;;;5.00;69.90;;;;;;4976104;28;20070;-62
2023/03/04 02:14:04;;;;;;;17.58;13.95;;;5.00;70.00;;;;;;4975030;28;20635;-61
2023/03/04 02:16:30;;;;;;;19.67;13.70;;;5.00;70.00;;;;;;4976245;28;20031;-61
2023/03/04 02:18:56;;;;;;;18.13;12.43;;;5.00;70.00;;;;;;4975512;28;20031;-61
2023/03/04 02:21:28;;;;;;;19.40;12.52;;;5.00;70.20;;;;;;4976085;28;20034;-62
2023/03/04 02:23:59;;;;;;;;;;;4.90;70.20;;;;;;4975457;28;20055;-62
2023/03/04 02:26:33;;;;;;;17.42;12.25;;;4.90;70.30;;;;;;4976228;28;19913;-62
2023/03/04 02:29:02;;;;;;;17.55;13.52;;;4.90;70.40;;;;;;4975588;28;20117;-62
2023/03/04 02:31:33;;;;;;;17.17;12.75;;;4.80;70.40;;;;;;4974404;28;20478;-55
2023/03/04 02:34:02;;;;;;;17.98;12.93;;;4.90;70.50;;;;;;4971466;28;20149;-52
2023/03/04 02:36:28;;;;;;;19.98;13.80;;;4.90;70.50;;;;;;4962047;28;20031;-62
2023/03/04 02:38:59;;;;;;;20.45;13.30;;;4.90;70.60;;;;;;4975457;28;20057;-63
2023/03/04 02:41:28;;;;;;;20.85;13.80;;;4.90;70.70;;;;;;4975242;28;20102;-53
2023/03/04 02:43:55;;;;;;;18.23;13.05;;;4.90;70.60;;;;;;4975261;28;20517;-55
2023/03/04 02:46:21;;;;;;;18.45;13.55;;;4.90;71.30;;;;;;4977484;28;20027;-61
2023/03/04 02:48:48;;;;;;;18.48;13.38;;;4.80;70.60;;;;;;4974005;28;20054;-61
2023/03/04 02:51:14;;;;;;;19.55;13.50;;;4.90;70.70;;;;;;4981014;28;20047;-62
2023/03/04 02:53:39;;;;;;;20.17;13.35;;;4.80;70.60;;;;;;4975277;28;20023;-62
2023/03/04 02:56:06;;;;;;;20.02;13.45;;;4.90;70.70;;;;;;4974589;28;20861;-62
2023/03/04 02:58:31;;;;;;;18.00;12.73;;;4.90;70.60;;;;;;4983681;28;20378;-62
2023/03/04 03:00:57;;;;;;;19.58;13.80;;;4.90;70.70;;;;;;4974595;28;20031;-61
2023/03/04 03:03:23;;;;;;;18.95;13.70;;;4.80;71.30;;;;;;4974849;28;20034;-61
2023/03/04 03:05:49;;;;;;;19.08;13.35;;;4.80;70.90;;;;;;4974129;28;20532;-53
2023/03/04 03:08:15;;;;;;;19.65;13.40;;;4.80;71.00;;;;;;4974305;28;20038;-52
2023/03/04 03:10:40;;;;;;;19.95;13.68;;;4.80;71.00;;;;;;4974884;28;20066;-63
2023/03/04 03:13:06;;;;;;;20.30;13.02;;;4.80;71.00;;;;;;4974951;28;20030;-61
2023/03/04 03:15:32;;;;;;;18.98;13.07;;;4.80;71.00;;;;;;4973647;28;20026;-62
2023/03/04 03:17:58;;;;;;;19.38;13.35;;;4.80;71.10;;;;;;4974757;28;20343;-62
2023/03/04 03:20:23;;;;;;;20.23;13.80;;;4.80;71.10;;;;;;4974755;28;20031;-62
2023/03/04 03:22:49;;;;;;;20.45;13.82;;;4.80;71.00;;;;;;4974686;28;20138;-62
2023/03/04 03:25:16;;;;;;;18.77;12.77;;;4.80;71.10;;;;;;4973504;28;20038;-63
2023/03/04 03:27:41;;;;;;;20.50;12.98;;;4.80;71.20;;;;;;4974690;28;20027;-50
2023/03/04 03:30:10;;;;;;;19.35;13.68;;;4.80;71.20;;;;;;4980746;28;20109;-52
2023/03/04 03:32:36;;;;;;;19.83;13.30;;;4.80;71.20;;;;;;4974637;28;20031;-51
2023/03/04 03:35:03;;;;;;;17.35;13.02;;;4.80;71.20;;;;;;4973964;28;20074;-53
2023/03/04 03:37:28;;;;;;;19.08;13.20;;;4.80;71.30;;;;;;4975009;28;20109;-62
2023/03/04 03:39:54;;;;;;;18.02;12.82;;;4.80;71.20;;;;;;4976036;28;20838;-62
2023/03/04 03:42:19;;;;;;;18.70;13.10;;;4.70;71.20;;;;;;4977516;28;20114;-56
2023/03/04 03:44:45;;;;;;;17.52;12.85;;;4.80;71.40;;;;;;4973544;28;20035;-57
2023/03/04 03:47:11;;;;;;;17.48;12.98;;;4.80;71.40;;;;;;4976418;28;20030;-51
2023/03/04 03:49:36;;;;;;;17.75;11.82;;;4.70;71.50;;;;;;4973950;28;20034;-52
2023/03/04 03:52:02;;;;;;;14.60;11.68;;;4.70;71.20;;;;;;4980153;28;20035;-55
2023/03/04 03:54:28;;;;;;;16.95;12.25;;;4.70;71.40;;;;;;4973714;28;20045;-54
2023/03/04 03:56:54;;;;;;;17.23;12.35;;;4.60;71.50;;;;;;4979198;28;20053;-61
2023/03/04 03:59:19;;;;;;;15.95;10.98;;;4.50;71.70;;;;;;4973393;28;20046;-61
2023/03/04 04:01:45;;;;;;;14.07;10.80;;;4.50;71.90;;;;;;4973619;28;20051;-64
2023/03/04 04:04:10;;;;;;;14.95;11.43;;;4.40;72.20;;;;;;4973116;28;20093;-64
2023/03/04 04:06:36;;;;;;;16.45;10.70;;;4.40;72.40;;;;;;4972955;28;20034;-53
2023/03/04 04:09:02;;;;;;;13.93;10.02;;;4.30;72.70;;;;;;4972580;28;20815;-52
2023/03/04 04:11:27;;;;;;;15.98;11.93;;;4.20;72.60;;;;;;4972740;28;20427;-53
2023/03/04 04:13:53;;;;;;;15.10;11.55;;;4.20;72.80;;;;;;4972013;28;20470;-52
2023/03/04 04:16:19;;;;;;;14.85;10.43;;;4.10;73.00;;;;;;4963734;28;20041;-63
2023/03/04 04:18:44;;;;;;;13.15;10.45;;;4.10;73.10;;;;;;4969113;28;20361;-62
2023/03/04 04:21:10;;;;;;;14.18;9.85;;;4.00;73.40;;;;;;4973741;28;20034;-61
2023/03/04 04:23:36;;;;;;;14.95;11.23;;;4.00;73.50;;;;;;4973531;28;20054;-61
2023/03/04 04:26:01;;;;;;;16.70;11.95;;;3.90;73.60;;;;;;4973632;28;20023;-63
2023/03/04 04:28:27;;;;;;;15.65;11.02;;;3.90;73.70;;;;;;4974514;28;20034;-62
2023/03/04 04:30:53;;;;;;;17.23;12.10;;;3.90;74.20;;;;;;4977416;28;20062;-63
2023/03/04 04:33:18;;;;;;;17.02;11.90;;;3.80;74.20;;;;;;4973084;28;20381;-62
2023/03/04 04:35:44;;;;;;;16.95;11.27;;;3.80;74.50;;;;;;4973383;28;20031;-62
2023/03/04 04:38:10;;;;;;;16.70;11.07;;;3.80;74.50;;;;;;4973198;28;20035;-63
2023/03/04 04:40:36;;;;;;;14.40;10.70;;;3.80;74.50;;;;;;4973479;28;20037;-63
2023/03/04 04:43:02;;;;;;;14.30;10.55;;;3.70;74.70;;;;;;4973157;28;20049;-62
2023/03/04 04:45:27;;;;;;;18.73;12.88;;;3.70;74.80;;;;;;4972386;28;20477;-63
2023/03/04 04:47:56;;;;;;;18.05;11.95;;;3.70;74.80;;;;;;4974723;28;20031;-62
2023/03/04 04:50:25;;;;;;;18.25;12.50;;;3.80;75.00;;;;;;4975185;28;20019;-62
2023/03/04 04:52:51;;;;;;;20.35;13.23;;;3.80;74.90;;;;;;4976175;28;20106;-49
2023/03/04 04:55:17;;;;;;;21.77;14.82;;;3.80;74.90;;;;;;4973186;28;20027;-49
2023/03/04 04:57:42;;;;;;;18.50;13.65;;;3.80;75.10;;;;;;4981094;28;20019;-62
2023/03/04 05:00:09;;;;;;;19.50;14.05;;;3.90;75.20;;;;;;4972992;28;20035;-61
2023/03/04 05:02:36;;;;;;;18.90;13.10;;;3.90;75.20;;;;;;4973169;28;20030;-63
2023/03/04 05:05:05;;;;;;;21.42;13.80;;;4.00;75.10;;;;;;4973289;28;20149;-62
2023/03/04 05:07:32;;;;;;;21.85;14.23;;;4.20;75.00;;;;;;4972701;28;20055;-60
2023/03/04 05:09:58;;;;;;;20.63;14.05;;;4.20;74.90;;;;;;4973076;28;20038;-61
2023/03/04 05:12:23;;;;;;;19.23;14.43;;;4.40;75.10;;;;;;4974964;28;20382;-64
2023/03/04 05:14:49;;;;;;;19.23;13.80;;;4.50;75.10;;;;;;4975679;28;20158;-64
2023/03/04 05:17:15;;;;;;;20.30;14.75;;;4.70;74.90;;;;;;4976308;28;20031;-63
2023/03/04 05:19:40;;;;;;;20.63;14.50;;;4.90;74.70;;;;;;4977319;28;20034;-62
2023/03/04 05:22:06;;;;;;;21.10;14.35;;;5.00;74.40;;;;;;4976549;28;20053;-62
2023/03/04 05:24:33;;;;;;;19.88;14.35;;;5.20;74.20;;;;;;4976719;28;20062;-63
2023/03/04 05:27:00;;;;;;;21.27;14.27;;;5.30;74.00;;;;;;4976468;28;20032;-64
2023/03/04 05:29:25;;;;;;;18.45;11.93;;;5.50;73.80;;;;;;4982361;28;20045;-64
2023/03/04 05:31:51;;;;;;;18.80;13.38;;;5.70;73.30;;;;;;4975753;28;20458;-64
2023/03/04 05:34:17;;;;;;;20.95;13.98;;;5.70;72.70;;;;;;4976497;28;20369;-64
2023/03/04 05:36:42;;;;;;;19.13;12.57;;;5.80;72.60;;;;;;4976500;28;20031;-64
2023/03/04 05:39:08;;;;;;;17.27;11.27;;;5.80;73.10;;;;;;4968725;28;20035;-64
2023/03/04 05:41:34;;;;;;;17.35;11.65;;;5.80;72.20;;;;;;4984830;28;20027;-55
2023/03/04 05:43:59;;;;;;;19.60;13.40;;;5.80;72.30;;;;;;4976539;28;20035;-54
2023/03/04 05:46:25;;;;;;;15.40;11.90;;;5.80;72.50;;;;;;4968658;28;20031;-64
2023/03/04 05:48:52;;;;;;;14.20;10.35;;;5.70;72.70;;;;;;4967316;28;20094;-64
2023/03/04 05:51:18;;;;;;;18.05;13.18;;;5.80;72.80;;;;;;4981957;28;20086;-64
2023/03/04 05:53:44;;;;;;;14.45;10.98;;;5.80;72.90;;;;;;4976232;28;20026;-64
2023/03/04 05:56:12;;;;;;;17.17;11.57;;;5.80;73.20;;;;;;4975762;28;20034;-61
2023/03/04 05:58:37;;;;;;;18.75;13.07;;;5.90;73.60;;;;;;4983976;28;20370;-62
2023/03/04 06:01:04;;;;;;;20.20;12.73;;;6.00;74.00;;;;;;4975810;28;20035;-61
2023/03/04 06:03:30;;;;;;;17.02;12.35;;;6.10;74.00;;;;;;4975401;28;20549;-61
2023/03/04 06:05:56;;;;;;;20.05;13.05;;;6.30;73.70;;;;;;4976488;28;20133;-55
2023/03/04 06:08:23;;;;;;;19.00;12.75;;;6.50;73.20;;;;;;4976141;28;20035;-50
2023/03/04 06:10:52;;;;;;;17.50;11.32;;;6.60;73.10;;;;;;4975888;28;20039;-64
2023/03/04 06:13:18;;;;;;;15.98;9.98;;;6.80;72.50;;;;;;4970172;28;20434;-64
2023/03/04 06:15:44;;;;;;;15.73;11.10;;;6.90;72.10;;;;;;4966670;28;20182;-53
2023/03/04 06:18:09;;;;;;;17.15;12.13;;;7.00;71.60;;;;;;4969099;28;20121;-51
2023/03/04 06:20:35;;;;;;;16.35;11.98;;;7.10;71.60;;;;;;4975019;28;20034;-52
2023/03/04 06:23:01;;;;;;;15.18;10.55;;;7.30;71.60;;;;;;4975372;28;20050;-51
2023/03/04 06:25:28;;;;;;;15.82;11.43;;;7.40;71.30;;;;;;4975822;28;20027;-49
2023/03/04 06:27:53;;;;;;;15.57;11.52;;;7.60;70.90;;;;;;4975682;28;20038;-53
2023/03/04 06:30:19;;;;;;;15.02;10.10;;;7.80;70.20;;;;;;4973344;28;20031;-50
2023/03/04 06:32:46;;;;;;;16.98;10.75;;;7.90;69.70;;;;;;4975445;28;20037;-52
2023/03/04 06:35:15;;;;;;;16.67;12.07;;;8.00;69.20;;;;;;4975595;28;20074;-50
2023/03/04 06:37:41;;;;;;;14.05;9.90;;;8.00;68.90;;;;;;4974129;28;20097;-53
2023/03/04 06:40:08;;;;;;;14.48;10.55;;;8.00;68.80;;;;;;4978107;28;20026;-49
2023/03/04 06:42:34;;;;;;;17.05;10.88;;;7.90;68.70;;;;;;4979541;28;20035;-62
2023/03/04 06:45:00;;;;;;;17.67;12.02;;;7.90;68.80;;;;;;4973304;28;20050;-63
2023/03/04 06:47:26;;;;;;;16.23;11.52;;;7.80;68.20;;;;;;4976370;28;20035;-63
2023/03/04 06:49:52;;;;;;;16.83;10.57;;;7.80;68.10;;;;;;4974043;28;20027;-62
2023/03/04 06:52:18;;;;;;;15.85;10.77;;;7.70;68.10;;;;;;4979535;28;20089;-51
2023/03/04 06:54:44;;;;;;;20.02;11.80;;;7.60;68.00;;;;;;4973989;28;20027;-50
2023/03/04 06:57:09;;;;;;;18.90;12.18;;;7.50;67.80;;;;;;4976983;28;20350;-54
2023/03/04 06:59:35;;;;;;;19.60;12.63;;;7.50;68.20;;;;;;4970899;28;20359;-55
2023/03/04 07:02:01;;;;;;;16.42;11.75;;;7.40;68.20;;;;;;4973617;28;20047;-59
2023/03/04 07:04:26;;;;;;;17.45;12.25;;;7.50;68.30;;;;;;4973702;28;20089;-60
2023/03/04 07:06:52;;;;;;;19.67;13.32;;;7.50;68.20;;;;;;4973877;28;20078;-60
2023/03/04 07:09:18;;;;;;;13.63;10.77;;;7.60;68.00;;;;;;4973079;28;20552;-60
2023/03/04 07:11:44;;;;;;;16.77;11.55;;;7.60;67.70;;;;;;4972914;28;20057;-60
2023/03/04 07:14:10;;;;;;;12.70;9.45;;;7.70;67.50;;;;;;4974285;28;20034;-60
2023/03/04 07:16:36;;;;;;;16.20;12.55;;;7.70;67.40;;;;;;4973166;28;20126;-60
2023/03/04 07:19:02;;;;;;;15.70;11.05;;;7.80;67.10;;;;;;4974468;28;20111;-60
2023/03/04 07:21:28;;;;;;;14.93;10.88;;;7.80;66.90;;;;;;4975005;28;20114;-58
2023/03/04 07:23:54;;;;;;;18.30;11.65;;;7.90;66.90;;;;;;4973960;28;20053;-59
2023/03/04 07:26:20;;;;;;;18.23;12.43;;;7.90;67.00;;;;;;4974777;28;20027;-60
2023/03/04 07:28:45;;;;;;;14.32;10.05;;;8.10;67.00;;;;;;4978148;28;20125;-60
2023/03/04 07:31:19;;;;;;;15.55;10.55;;;8.10;66.10;;;;;;4982261;28;20577;-60
2023/03/04 07:33:44;;;;;;;16.92;11.25;;;8.20;66.00;;;;;;4974131;28;20034;-60
2023/03/04 07:36:10;;;;;;;16.45;10.98;;;8.30;65.90;;;;;;4973722;28;20031;-51
2023/03/04 07:38:36;;;;;;;13.68;10.00;;;8.50;65.40;;;;;;4974295;28;20031;-52
2023/03/04 07:41:02;;;;;;;14.43;10.38;;;8.50;64.70;;;;;;4982224;28;20121;-59
2023/03/04 07:43:28;;;;;;;15.57;10.75;;;8.50;64.40;;;;;;4974795;28;20476;-59
2023/03/04 07:45:59;;;;;;;16.35;11.30;;;8.50;64.70;;;;;;4974200;28;20038;-59
2023/03/04 07:48:25;;;;;;;;;;;8.50;64.60;;;;;;4973025;28;20109;-59
2023/03/04 07:51:02;;;;;;;13.55;9.15;;;8.40;64.70;;;;;;4975299;28;20017;-59
2023/03/04 07:53:27;;;;;;;12.55;8.88;;;8.50;64.50;;;;;;4969642;28;20023;-59
2023/03/04 07:55:53;;;;;;;17.77;11.15;;;8.50;64.20;;;;;;4961263;28;20050;-59
2023/03/04 07:58:18;;;;;;;16.38;11.07;;;8.50;64.30;;;;;;4966580;28;20043;-59
2023/03/04 08:00:44;;;;;;;15.55;10.98;;;8.50;64.80;;;;;;4955637;28;22655;-57
2023/03/04 08:03:09;;;;;;;15.52;10.27;;;8.40;64.00;;;;;;4965070;28;20423;-58
2023/03/04 08:05:38;;;;;;;13.98;10.25;;;8.50;64.20;;;;;;4956645;28;20031;-60
2023/03/04 08:08:04;;;;;;;16.38;10.05;;;8.40;64.10;;;;;;4951267;28;20046;-59
2023/03/04 08:10:29;;;;;;;18.23;12.48;;;8.30;63.70;;;;;;4952839;28;20034;-60
2023/03/04 08:12:55;;;;;;;16.70;10.98;;;8.20;64.00;;;;;;4953767;28;20066;-61
2023/03/04 08:15:21;;;;;;;15.10;11.05;;;8.20;64.10;;;;;;4956950;28;20022;-59
2023/03/04 08:17:46;;;;;;;13.63;10.90;;;8.20;64.30;;;;;;4961574;28;20035;-58
2023/03/04 08:20:12;;;;;;;19.27;11.82;;;8.30;64.10;;;;;;4961573;28;20035;-59
2023/03/04 08:22:38;;;;;;;16.00;10.63;;;8.30;64.00;;;;;;4964828;28;20378;-59
2023/03/04 08:25:04;;;;;;;17.98;12.40;;;8.40;64.00;;;;;;4957953;28;20027;-59
2023/03/04 08:27:30;;;;;;;15.70;10.82;;;8.50;64.00;;;;;;4962378;28;20023;-60
2023/03/04 08:29:55;;;;;;;13.55;10.05;;;8.60;64.70;;;;;;4964090;28;20022;-60
2023/03/04 08:32:21;;;;;;;12.73;9.00;;;8.60;63.40;;;;;;4962505;28;20047;-60
2023/03/04 08:34:46;;;;;;;17.23;10.90;;;8.60;63.50;;;;;;4955052;28;20034;-60
2023/03/04 08:37:12;;;;;;;16.40;12.27;;;8.60;63.10;;;;;;4964542;28;20068;-60
2023/03/04 08:39:38;;;;;;;17.25;11.65;;;8.60;63.10;;;;;;4958160;28;20027;-60
2023/03/04 08:42:03;;;;;;;15.90;10.75;;;8.60;63.00;;;;;;4964355;28;20089;-60
2023/03/04 08:44:29;;;;;;;19.25;12.63;;;8.60;63.00;;;;;;4956849;28;20046;-60
2023/03/04 08:46:55;;;;;;;14.70;10.73;;;8.60;62.50;;;;;;4967119;28;20027;-60
2023/03/04 08:49:21;;;;;;;13.15;10.25;;;8.60;62.50;;;;;;4956660;28;20662;-60
2023/03/04 08:51:46;;;;;;;17.13;12.25;;;8.60;62.60;;;;;;4960451;28;20043;-59
2023/03/04 08:54:12;;;;;;;16.80;11.48;;;8.60;62.60;;;;;;4957847;28;20100;-60
2023/03/04 08:56:39;;;;;;;16.90;11.35;;;8.60;62.60;;;;;;4958263;28;20035;-60
2023/03/04 08:59:05;;;;;;;17.73;11.32;;;8.60;62.30;;;;;;4959836;28;20405;-60
2023/03/04 09:01:31;;;;;;;13.88;10.90;;;8.60;62.30;;;;;;4966281;28;20042;-60
2023/03/04 09:03:56;;;;;;;17.50;11.90;;;8.60;62.40;;;;;;4963368;28;20038;-59
2023/03/04 09:06:22;;;;;;;17.88;12.80;;;8.60;62.30;;;;;;4971610;28;20063;-60
2023/03/04 09:08:47;;;;;;;16.70;11.25;;;8.60;62.80;;;;;;4964904;28;20470;-60
2023/03/04 09:11:14;;;;;;;18.63;12.80;;;8.60;62.50;;;;;;4968360;28;20037;-60
2023/03/04 09:13:40;;;;;;;16.17;11.60;;;8.60;62.30;;;;;;4962724;28;20544;-60
2023/03/04 09:16:11;;;;;;;16.48;10.40;;;8.70;62.30;;;;;;4962875;28;20026;-59
2023/03/04 09:18:38;;;;;;;22.80;13.50;;;8.70;61.90;;;;;;4965131;28;20031;-59
2023/03/04 09:21:05;;;;;;;16.45;12.10;;;8.60;61.70;;;;;;4962176;28;20474;-60
2023/03/04 09:23:30;;;;;;;20.27;12.13;;;8.50;61.80;;;;;;4960478;28;20470;-60
2023/03/04 09:25:56;;;;;;;17.83;11.90;;;8.50;61.80;;;;;;4964759;28;20050;-60
2023/03/04 09:28:21;;;;;;;16.35;10.60;;;8.40;61.80;;;;;;4962964;28;20033;-60
2023/03/04 09:30:47;;;;;;;14.23;10.70;;;8.40;62.00;;;;;;4968069;28;20045;-60
2023/03/04 09:33:13;;;;;;;15.55;10.82;;;8.30;62.10;;;;;;4965914;28;20035;-60
2023/03/04 09:35:39;;;;;;;18.83;12.90;;;8.30;62.20;;;;;;4964945;28;20050;-60
2023/03/04 09:38:05;;;;;;;18.80;13.20;;;8.20;62.30;;;;;;4956155;28;20035;-60
2023/03/04 09:40:48;;;;;;;14.82;10.50;;;8.30;62.50;;;;;;4959092;28;20027;-60
2023/03/04 09:43:22;;;;;;;14.73;10.52;;;8.30;62.20;;;;;;4963167;28;20687;-60
2023/03/04 09:45:54;;;;;;;20.20;13.00;;;8.40;61.90;;;;;;4959369;28;20034;-60
2023/03/04 09:48:23;;;;;;;16.98;11.45;;;8.40;62.00;;;;;;4958723;28;20027;-60
2023/03/04 09:51:28;;;;;;;16.20;10.98;;;8.40;62.20;;;;;;4964446;28;20062;-60
2023/03/04 09:54:07;;;;;;;18.10;11.55;;;8.40;62.20;;;;;;4954420;28;20099;-60
2023/03/04 09:56:38;;;;;;;17.65;11.10;;;8.50;62.30;;;;;;4962534;28;20035;-60
2023/03/04 09:59:42;;;;;;;15.35;11.18;;;8.70;62.00;;;;;;4962963;28;20030;-60
2023/03/04 10:02:31;;;;;;;13.35;9.18;;;8.70;61.70;;;;;;4968032;28;20173;-60
2023/03/04 10:05:01;;;;;;;14.20;9.75;;;8.80;61.70;;;;;;4961804;28;20038;-60
2023/03/04 10:07:35;;;;;;;16.60;11.43;;;8.90;61.50;;;;;;4961110;28;20035;-60
2023/03/04 10:10:12;;;;;;;16.88;10.90;;;8.90;61.60;;;;;;4961537;28;20064;-60
2023/03/04 10:12:43;;;;;;;14.85;10.75;;;9.00;61.20;;;;;;4957579;28;20035;-60
2023/03/04 10:15:27;;;;;;;15.65;10.43;;;9.10;61.10;;;;;;4956790;28;20039;-60
2023/03/04 10:18:05;;;;;;;15.65;10.98;;;9.10;60.90;;;;;;4968049;28;20057;-60
2023/03/04 10:20:43;;;;;;;14.20;9.98;;;9.20;61.10;;;;;;4969023;28;20058;-61
2023/03/04 10:23:16;;;;;;;11.93;8.73;;;9.30;60.80;;;;;;4961161;28;20763;-60
2023/03/04 10:25:45;;;;;;;15.45;10.40;;;9.40;60.00;;;;;;4966358;28;20023;-60
2023/03/04 10:28:20;;;;;;;15.73;10.40;;;9.40;59.60;;;;;;4960971;28;20034;-60
2023/03/04 10:31:28;;;;;;;11.32;7.55;;;9.40;59.60;;;;;;4965077;28;20047;-60
2023/03/04 10:33:54;;;;;;;15.98;10.45;;;9.50;59.70;;;;;;4959505;28;20057;-59
2023/03/04 10:36:28;;;;;;;12.23;9.23;;;9.50;59.80;;;;;;4961702;28;20035;-60
2023/03/04 10:39:02;;;;;;;13.60;9.00;;;9.60;59.90;;;;;;4962944;28;20046;-60
2023/03/04 10:41:30;;;;;;;11.23;8.43;;;9.70;59.80;;;;;;4963879;28;20546;-60
2023/03/04 10:44:17;;;;;;;14.20;9.55;;;9.80;59.40;;;;;;4958132;28;20039;-60
2023/03/04 10:46:47;;;;;;;14.45;9.95;;;9.90;59.10;;;;;;4967218;28;20039;-60
2023/03/04 10:49:17;;;;;;;14.90;9.68;;;9.90;59.50;;;;;;4962985;28;20437;-60
2023/03/04 10:51:51;;;;;;;14.25;10.00;;;9.90;58.90;;;;;;4967550;28;20058;-60
2023/03/04 10:55:01;;;;;;;15.45;10.07;;;10.00;58.80;;;;;;4952971;28;20034;-60
2023/03/04 10:57:26;;;;;;;15.90;10.15;;;10.10;58.60;;;;;;4941124;28;20038;-61
2023/03/04 11:00:38;;;;;;;15.82;10.20;;;10.10;58.00;;;;;;4943645;28;20023;-60
2023/03/04 11:03:29;;;;;;;15.20;10.30;;;10.10;57.80;;;;;;4965199;28;20045;-60
2023/03/04 11:06:31;;;;;;;14.10;9.65;;;10.10;58.10;;;;;;4963585;28;20292;-60
2023/03/04 11:08:58;;;;;;;13.07;8.88;;;10.10;57.70;;;;;;4925980;29;20040;-59
2023/03/04 11:11:33;;;;;;;13.73;10.25;;;10.10;58.10;;;;;;4961727;28;20073;-59
2023/03/04 11:14:02;;;;;;;16.27;10.60;;;10.10;58.20;;;;;;4973655;28;20399;-58
2023/03/04 11:16:30;;;;;;;17.77;11.75;;;10.10;58.10;;;;;;4958585;28;20433;-60
2023/03/04 11:19:19;;;;;;;16.95;11.00;;;10.10;57.90;;;;;;4957530;28;20041;-60
2023/03/04 11:21:47;;;;;;;15.88;11.00;;;10.00;57.70;;;;;;4955953;28;20078;-59
2023/03/04 11:24:24;;;;;;;14.20;9.70;;;10.00;58.00;;;;;;4954939;28;20473;-60
2023/03/04 11:27:07;;;;;;;15.63;10.85;;;10.00;58.10;;;;;;4953899;28;20023;-60
2023/03/04 11:29:59;;;;;;;16.48;11.10;;;9.90;57.80;;;;;;4959054;28;20031;-60
2023/03/04 11:32:39;;;;;;;14.10;10.30;;;10.00;58.20;;;;;;4959919;28;20039;-59
2023/03/04 11:35:15;;;;;;;17.33;10.60;;;10.00;58.30;;;;;;4967184;28;20581;-58
2023/03/04 11:37:53;;;;;;;15.88;9.68;;;10.00;58.30;;;;;;4964828;28;20487;-60
2023/03/04 11:40:37;;;;;;;15.45;9.77;;;10.10;57.90;;;;;;4963587;28;20462;-60
2023/03/04 11:43:25;;;;;;;14.70;10.40;;;10.20;57.70;;;;;;4965875;28;20093;-60
2023/03/04 11:46:27;;;;;;;12.20;8.30;;;10.20;57.40;;;;;;4961097;28;20110;-60
2023/03/04 11:49:07;;;;;;;16.42;10.70;;;10.20;57.40;;;;;;4968837;28;20477;-59
2023/03/04 11:51:57;;;;;;;12.82;9.13;;;10.20;57.40;;;;;;4966194;28;20549;-60
2023/03/04 11:55:01;;;;;;;15.27;10.15;;;10.20;57.50;;;;;;4968663;28;20058;-59
2023/03/04 11:57:26;;;;;;;10.65;8.25;;;10.20;56.40;;;;;;4959154;28;20410;-60
2023/03/04 12:00:03;;;;;;;14.88;9.70;;;10.20;56.80;;;;;;4949704;28;20042;-60
2023/03/04 12:02:58;;;;;;;16.08;10.45;;;10.30;56.70;;;;;;4955072;28;20473;-60
2023/03/04 12:05:36;;;;;;;15.05;10.30;;;10.30;56.60;;;;;;4937520;28;20054;-60
2023/03/04 12:08:11;;;;;;;13.60;9.27;;;10.30;56.50;;;;;;4970197;28;20030;-61
2023/03/04 12:10:42;;;;;;;12.65;8.82;;;10.30;56.40;;;;;;4962284;28;20032;-58
2023/03/04 12:13:29;;;;;;;;;;;10.40;56.60;;;;;;4970922;28;20686;-57
2023/03/04 12:16:05;;;;;;;10.70;6.68;;;10.40;55.70;;;;;;4960816;28;19917;-62
2023/03/04 12:18:45;;;;;;;16.88;10.25;;;10.40;56.40;;;;;;4972451;28;20093;-64
2023/03/04 12:21:26;;;;;;;14.40;9.98;;;10.50;56.50;;;;;;4970017;28;20049;-60
2023/03/04 12:24:10;;;;;;;16.63;10.27;;;10.50;56.30;;;;;;4982053;28;20039;-60
2023/03/04 12:27:00;;;;;;;13.52;9.23;;;10.50;56.20;;;;;;4963725;28;20043;-61
2023/03/04 12:29:55;;;;;;;16.50;9.85;;;10.60;56.10;;;;;;4977051;28;20213;-63
2023/03/04 12:32:47;;;;;;;14.57;9.40;;;10.60;55.90;;;;;;4963003;28;20569;-61
2023/03/04 12:35:22;;;;;;;14.70;10.25;;;10.60;55.60;;;;;;4968615;28;20683;-62
2023/03/04 12:38:23;;;;;;;11.85;8.70;;;10.60;55.50;;;;;;4975091;28;20030;-54
2023/03/04 12:41:00;;;;;;;14.67;9.53;;;10.60;55.80;;;;;;4931911;28;20157;-60
2023/03/04 12:43:45;;;;;;;12.43;8.27;;;10.60;55.80;;;;;;4972063;28;20272;-60
2023/03/04 12:46:19;;;;;;;13.55;9.00;;;10.60;55.90;;;;;;4968731;28;20042;-62
2023/03/04 12:48:58;;;;;;;15.77;9.70;;;10.60;55.50;;;;;;4964662;28;20035;-63
2023/03/04 12:51:55;;;;;;;14.40;9.85;;;10.60;55.10;;;;;;4976893;28;20050;-64